N2324K KRDU-KILM
Flight info
| Callsign | N2324K |
|---|---|
| Flight time | 0h 41m |
| Altitude | 7000 |
| Route | ROZBO5 ROZBO |
| Aircraft | BE36/L-BDFGLORY/S |
Departure
| Time | 2026-05-06 23:21 |
|---|---|
| Airport | Raleigh-Durham International Airport (KRDU) |
Arrival
| Time | 2026-05-07 00:03 |
|---|---|
| Airport | Wilmington International Airport (KILM) |
| Time | Latitude | Longitude | Altitude | Speed | Heading |
|---|---|---|---|---|---|
| 2026-05-06 23:05 | 35.87918 | -78.78549 | 430 ft | 0 kts | 225° |
| 2026-05-06 23:15 | 35.87899 | -78.78534 | 429 ft | 7 kts | 129° |
| 2026-05-06 23:15 | 35.87879 | -78.78487 | 425 ft | 6 kts | 55° |
| 2026-05-06 23:16 | 35.87892 | -78.78434 | 429 ft | 8 kts | 81° |
| 2026-05-06 23:16 | 35.87905 | -78.78349 | 421 ft | 12 kts | 73° |
| 2026-05-06 23:16 | 35.87965 | -78.78256 | 425 ft | 16 kts | 51° |
| 2026-05-06 23:16 | 35.87983 | -78.78154 | 421 ft | 13 kts | 44° |
| 2026-05-06 23:17 | 35.88046 | -78.78076 | 424 ft | 13 kts | 44° |
| 2026-05-06 23:17 | 35.88114 | -78.77994 | 423 ft | 16 kts | 47° |
| 2026-05-06 23:17 | 35.88188 | -78.77904 | 422 ft | 0 kts | 44° |
| 2026-05-06 23:18 | 35.88194 | -78.77886 | 420 ft | 6 kts | 212° |
| 2026-05-06 23:18 | 35.88152 | -78.77941 | 425 ft | 9 kts | 226° |
| 2026-05-06 23:18 | 35.88103 | -78.78006 | 425 ft | 11 kts | 227° |
| 2026-05-06 23:19 | 35.88044 | -78.78064 | 425 ft | 10 kts | 202° |
| 2026-05-06 23:19 | 35.87984 | -78.78038 | 425 ft | 6 kts | 142° |
| 2026-05-06 23:19 | 35.87977 | -78.78032 | 425 ft | 0 kts | 142° |
| 2026-05-06 23:20 | 35.87964 | -78.78019 | 425 ft | 14 kts | 141° |
| 2026-05-06 23:20 | 35.87870 | -78.78011 | 423 ft | 16 kts | 210° |
| 2026-05-06 23:20 | 35.87601 | -78.78335 | 467 ft | 88 kts | 224° |
| 2026-05-06 23:21 | 35.87106 | -78.78958 | 820 ft | 111 kts | 231° |
| 2026-05-06 23:21 | 35.86468 | -78.79408 | 1390 ft | 119 kts | 183° |
| 2026-05-06 23:21 | 35.85662 | -78.78879 | 1672 ft | 145 kts | 148° |
| 2026-05-06 23:21 | 35.84813 | -78.78179 | 1988 ft | 149 kts | 161° |
| 2026-05-06 23:22 | 35.83903 | -78.77503 | 2278 ft | 151 kts | 158° |
| 2026-05-06 23:22 | 35.82935 | -78.76907 | 2148 ft | 164 kts | 152° |
| 2026-05-06 23:22 | 35.82037 | -78.75948 | 1999 ft | 170 kts | 149° |
| 2026-05-06 23:22 | 35.81047 | -78.75214 | 2028 ft | 160 kts | 160° |
| 2026-05-06 23:23 | 35.80078 | -78.74612 | 2041 ft | 158 kts | 162° |
| 2026-05-06 23:23 | 35.79094 | -78.74048 | 2122 ft | 151 kts | 160° |
| 2026-05-06 23:23 | 35.78211 | -78.73290 | 2144 ft | 156 kts | 153° |
| 2026-05-06 23:23 | 35.77297 | -78.72544 | 2206 ft | 151 kts | 155° |
| 2026-05-06 23:24 | 35.76496 | -78.71892 | 2669 ft | 123 kts | 166° |
| 2026-05-06 23:24 | 35.75744 | -78.71600 | 3035 ft | 111 kts | 175° |
| 2026-05-06 23:24 | 35.74957 | -78.71314 | 3491 ft | 119 kts | 170° |
| 2026-05-06 23:24 | 35.74219 | -78.70866 | 4110 ft | 119 kts | 161° |
| 2026-05-06 23:25 | 35.73477 | -78.70594 | 4708 ft | 112 kts | 178° |
| 2026-05-06 23:25 | 35.72712 | -78.70336 | 5298 ft | 109 kts | 190° |
| 2026-05-06 23:25 | 35.71947 | -78.70342 | 5850 ft | 111 kts | 199° |
| 2026-05-06 23:25 | 35.71189 | -78.70521 | 6393 ft | 111 kts | 206° |
| 2026-05-06 23:26 | 35.70376 | -78.70677 | 6854 ft | 126 kts | 201° |
| 2026-05-06 23:26 | 35.69378 | -78.70798 | 6709 ft | 154 kts | 196° |
| 2026-05-06 23:26 | 35.68370 | -78.70908 | 7035 ft | 139 kts | 198° |
| 2026-05-06 23:26 | 35.67413 | -78.71024 | 7175 ft | 147 kts | 198° |
| 2026-05-06 23:27 | 35.66347 | -78.71160 | 7128 ft | 158 kts | 197° |
| 2026-05-06 23:27 | 35.65252 | -78.71291 | 7109 ft | 156 kts | 197° |
| 2026-05-06 23:27 | 35.64168 | -78.71410 | 7118 ft | 153 kts | 197° |
| 2026-05-06 23:27 | 35.63098 | -78.71523 | 7103 ft | 155 kts | 197° |
| 2026-05-06 23:28 | 35.62025 | -78.71633 | 7094 ft | 155 kts | 197° |
| 2026-05-06 23:28 | 35.60953 | -78.71743 | 7092 ft | 154 kts | 196° |
| 2026-05-06 23:28 | 35.59881 | -78.71850 | 7094 ft | 154 kts | 197° |
| 2026-05-06 23:28 | 35.58813 | -78.71955 | 7094 ft | 154 kts | 197° |
| 2026-05-06 23:29 | 35.57756 | -78.72055 | 7097 ft | 154 kts | 196° |
| 2026-05-06 23:29 | 35.56660 | -78.71949 | 7094 ft | 164 kts | 178° |
| 2026-05-06 23:29 | 35.55555 | -78.71607 | 7095 ft | 164 kts | 178° |
| 2026-05-06 23:29 | 35.54448 | -78.71283 | 7091 ft | 164 kts | 180° |
| 2026-05-06 23:30 | 35.53231 | -78.71016 | 7080 ft | 184 kts | 181° |
| 2026-05-06 23:30 | 35.51951 | -78.70760 | 7072 ft | 193 kts | 181° |
| 2026-05-06 23:30 | 35.50611 | -78.70567 | 7057 ft | 195 kts | 184° |
| 2026-05-06 23:30 | 35.49252 | -78.70361 | 7043 ft | 198 kts | 182° |
| 2026-05-06 23:31 | 35.47879 | -78.70140 | 7028 ft | 199 kts | 182° |
| 2026-05-06 23:31 | 35.46501 | -78.69938 | 7017 ft | 200 kts | 183° |
| 2026-05-06 23:31 | 35.45118 | -78.69742 | 7018 ft | 200 kts | 183° |
| 2026-05-06 23:31 | 35.43750 | -78.69543 | 7010 ft | 195 kts | 183° |
| 2026-05-06 23:32 | 35.42405 | -78.69351 | 7012 ft | 192 kts | 183° |
| 2026-05-06 23:32 | 35.41081 | -78.69164 | 7006 ft | 191 kts | 183° |
| 2026-05-06 23:32 | 35.39776 | -78.68978 | 7009 ft | 191 kts | 185° |
| 2026-05-06 23:32 | 35.38456 | -78.68803 | 6988 ft | 191 kts | 183° |
| 2026-05-06 23:33 | 35.37142 | -78.68604 | 6986 ft | 190 kts | 183° |
| 2026-05-06 23:33 | 35.35832 | -78.68413 | 6984 ft | 189 kts | 183° |
| 2026-05-06 23:33 | 35.34528 | -78.68228 | 6982 ft | 188 kts | 183° |
| 2026-05-06 23:33 | 35.33228 | -78.68042 | 6981 ft | 188 kts | 183° |
| 2026-05-06 23:34 | 35.31929 | -78.67857 | 6978 ft | 188 kts | 183° |
| 2026-05-06 23:34 | 35.30632 | -78.67671 | 6978 ft | 187 kts | 183° |
| 2026-05-06 23:34 | 35.29343 | -78.67486 | 6976 ft | 186 kts | 183° |
| 2026-05-06 23:34 | 35.28052 | -78.67303 | 6974 ft | 187 kts | 183° |
| 2026-05-06 23:35 | 35.26748 | -78.67118 | 6973 ft | 189 kts | 182° |
| 2026-05-06 23:35 | 35.25435 | -78.66930 | 6973 ft | 190 kts | 182° |
| 2026-05-06 23:35 | 35.24113 | -78.66741 | 6974 ft | 191 kts | 182° |
| 2026-05-06 23:35 | 35.22792 | -78.66552 | 6974 ft | 191 kts | 182° |
| 2026-05-06 23:36 | 35.21469 | -78.66363 | 6966 ft | 191 kts | 182° |
| 2026-05-06 23:36 | 35.20145 | -78.66174 | 6965 ft | 191 kts | 182° |
| 2026-05-06 23:36 | 35.18824 | -78.65986 | 6967 ft | 192 kts | 182° |
| 2026-05-06 23:36 | 35.17497 | -78.65798 | 6966 ft | 192 kts | 182° |
| 2026-05-06 23:37 | 35.16175 | -78.65609 | 6960 ft | 192 kts | 182° |
| 2026-05-06 23:37 | 35.14847 | -78.65420 | 6961 ft | 192 kts | 182° |
| 2026-05-06 23:37 | 35.13523 | -78.65232 | 6957 ft | 192 kts | 182° |
| 2026-05-06 23:37 | 35.12197 | -78.65043 | 6958 ft | 191 kts | 182° |
| 2026-05-06 23:38 | 35.10890 | -78.64858 | 6963 ft | 192 kts | 182° |
| 2026-05-06 23:38 | 35.09566 | -78.64669 | 6964 ft | 192 kts | 182° |
| 2026-05-06 23:38 | 35.08237 | -78.64481 | 6965 ft | 192 kts | 182° |
| 2026-05-06 23:38 | 35.06911 | -78.64291 | 6966 ft | 192 kts | 182° |
| 2026-05-06 23:39 | 35.05585 | -78.64103 | 6966 ft | 192 kts | 182° |
| 2026-05-06 23:39 | 35.04259 | -78.63915 | 6961 ft | 192 kts | 182° |
| 2026-05-06 23:39 | 35.02931 | -78.63727 | 6962 ft | 192 kts | 182° |
| 2026-05-06 23:39 | 35.01605 | -78.63539 | 6968 ft | 192 kts | 182° |
| 2026-05-06 23:40 | 35.00277 | -78.63350 | 6969 ft | 192 kts | 182° |
| 2026-05-06 23:40 | 34.98952 | -78.63162 | 6967 ft | 192 kts | 182° |
| 2026-05-06 23:40 | 34.97629 | -78.62975 | 6962 ft | 191 kts | 182° |
| 2026-05-06 23:40 | 34.96304 | -78.62781 | 6964 ft | 193 kts | 180° |
| 2026-05-06 23:41 | 34.95048 | -78.62075 | 6967 ft | 210 kts | 147° |
| 2026-05-06 23:41 | 34.93996 | -78.60847 | 6969 ft | 213 kts | 141° |
| 2026-05-06 23:41 | 34.92982 | -78.59521 | 6967 ft | 214 kts | 138° |
| 2026-05-06 23:41 | 34.91985 | -78.58168 | 6972 ft | 214 kts | 138° |
| 2026-05-06 23:42 | 34.90986 | -78.56823 | 6975 ft | 214 kts | 139° |
| 2026-05-06 23:42 | 34.89984 | -78.55487 | 6975 ft | 214 kts | 139° |
| 2026-05-06 23:42 | 34.88981 | -78.54150 | 6972 ft | 214 kts | 139° |
| 2026-05-06 23:42 | 34.87978 | -78.52813 | 6976 ft | 214 kts | 139° |
| 2026-05-06 23:43 | 34.86973 | -78.51473 | 6976 ft | 214 kts | 139° |
| 2026-05-06 23:43 | 34.85967 | -78.50132 | 6970 ft | 214 kts | 139° |
| 2026-05-06 23:43 | 34.84910 | -78.48882 | 6965 ft | 207 kts | 156° |
| 2026-05-06 23:43 | 34.83587 | -78.48391 | 6976 ft | 197 kts | 178° |
| 2026-05-06 23:44 | 34.82251 | -78.47958 | 6971 ft | 202 kts | 168° |
| 2026-05-06 23:44 | 34.80988 | -78.47140 | 6972 ft | 210 kts | 152° |
| 2026-05-06 23:44 | 34.79839 | -78.46025 | 6977 ft | 212 kts | 147° |
| 2026-05-06 23:44 | 34.78733 | -78.44844 | 6977 ft | 212 kts | 145° |
| 2026-05-06 23:45 | 34.77629 | -78.43652 | 6974 ft | 212 kts | 146° |
| 2026-05-06 23:45 | 34.76893 | -78.42865 | 6980 ft | 212 kts | 146° |
| 2026-05-06 23:45 | 34.75782 | -78.41683 | 6981 ft | 212 kts | 146° |
| 2026-05-06 23:45 | 34.74670 | -78.40502 | 6978 ft | 213 kts | 146° |
| 2026-05-06 23:46 | 34.73549 | -78.39308 | 6985 ft | 215 kts | 145° |
| 2026-05-06 23:46 | 34.72423 | -78.38109 | 6987 ft | 216 kts | 145° |
| 2026-05-06 23:46 | 34.71295 | -78.36908 | 6988 ft | 216 kts | 145° |
| 2026-05-06 23:46 | 34.70164 | -78.35706 | 6989 ft | 216 kts | 146° |
| 2026-05-06 23:47 | 34.69033 | -78.34504 | 6988 ft | 216 kts | 146° |
| 2026-05-06 23:47 | 34.67897 | -78.33305 | 6982 ft | 216 kts | 144° |
| 2026-05-06 23:47 | 34.66766 | -78.32101 | 6981 ft | 216 kts | 144° |
| 2026-05-06 23:47 | 34.65635 | -78.30897 | 6982 ft | 216 kts | 144° |
| 2026-05-06 23:48 | 34.64567 | -78.29641 | 6977 ft | 220 kts | 130° |
| 2026-05-06 23:48 | 34.63800 | -78.28024 | 6989 ft | 222 kts | 121° |
| 2026-05-06 23:48 | 34.63089 | -78.26360 | 6989 ft | 222 kts | 120° |
| 2026-05-06 23:48 | 34.62379 | -78.24690 | 6992 ft | 222 kts | 120° |
| 2026-05-06 23:49 | 34.61673 | -78.23024 | 6994 ft | 223 kts | 120° |
| 2026-05-06 23:49 | 34.60965 | -78.21350 | 6994 ft | 223 kts | 120° |
| 2026-05-06 23:49 | 34.60259 | -78.19679 | 6994 ft | 222 kts | 120° |
| 2026-05-06 23:49 | 34.59556 | -78.18010 | 6994 ft | 222 kts | 120° |
| 2026-05-06 23:50 | 34.58852 | -78.16338 | 6986 ft | 222 kts | 120° |
| 2026-05-06 23:50 | 34.57443 | -78.12995 | 6982 ft | 222 kts | 120° |
| 2026-05-06 23:50 | 34.56740 | -78.11328 | 6980 ft | 222 kts | 120° |
| 2026-05-06 23:51 | 34.56037 | -78.09661 | 6988 ft | 222 kts | 120° |
| 2026-05-06 23:51 | 34.55330 | -78.07991 | 6988 ft | 222 kts | 120° |
| 2026-05-06 23:51 | 34.54623 | -78.06324 | 6988 ft | 222 kts | 120° |
| 2026-05-06 23:51 | 34.53925 | -78.04681 | 6866 ft | 215 kts | 121° |
| 2026-05-06 23:52 | 34.53245 | -78.03079 | 6631 ft | 212 kts | 120° |
| 2026-05-06 23:52 | 34.52572 | -78.01486 | 6328 ft | 213 kts | 120° |
| 2026-05-06 23:52 | 34.51899 | -77.99886 | 6004 ft | 213 kts | 121° |
| 2026-05-06 23:52 | 34.51230 | -77.98283 | 5687 ft | 213 kts | 120° |
| 2026-05-06 23:53 | 34.50564 | -77.96679 | 5371 ft | 213 kts | 120° |
| 2026-05-06 23:53 | 34.49902 | -77.95075 | 5054 ft | 212 kts | 120° |
| 2026-05-06 23:53 | 34.49250 | -77.93484 | 4744 ft | 210 kts | 120° |
| 2026-05-06 23:53 | 34.48612 | -77.91903 | 4422 ft | 208 kts | 121° |
| 2026-05-06 23:54 | 34.47994 | -77.90347 | 4103 ft | 206 kts | 120° |
| 2026-05-06 23:54 | 34.47383 | -77.88783 | 3787 ft | 204 kts | 120° |
| 2026-05-06 23:54 | 34.46786 | -77.87230 | 3474 ft | 203 kts | 120° |
| 2026-05-06 23:54 | 34.46196 | -77.85677 | 3158 ft | 202 kts | 120° |
| 2026-05-06 23:55 | 34.45618 | -77.84133 | 2839 ft | 200 kts | 120° |
| 2026-05-06 23:55 | 34.45049 | -77.82607 | 2533 ft | 198 kts | 120° |
| 2026-05-06 23:55 | 34.44494 | -77.81085 | 2211 ft | 197 kts | 121° |
| 2026-05-06 23:55 | 34.43973 | -77.79565 | 2002 ft | 190 kts | 121° |
| 2026-05-06 23:56 | 34.43234 | -77.78448 | 1985 ft | 156 kts | 163° |
| 2026-05-06 23:56 | 34.42240 | -77.78184 | 1993 ft | 143 kts | 180° |
| 2026-05-06 23:56 | 34.41217 | -77.78022 | 1808 ft | 149 kts | 180° |
| 2026-05-06 23:56 | 34.40240 | -77.77870 | 1803 ft | 135 kts | 181° |
| 2026-05-06 23:57 | 34.39336 | -77.77684 | 1795 ft | 129 kts | 180° |
| 2026-05-06 23:57 | 34.38469 | -77.77494 | 1792 ft | 123 kts | 182° |
| 2026-05-06 23:57 | 34.37669 | -77.77619 | 1781 ft | 114 kts | 201° |
| 2026-05-06 23:57 | 34.36913 | -77.77829 | 1794 ft | 106 kts | 199° |
| 2026-05-06 23:58 | 34.36246 | -77.78086 | 1794 ft | 97 kts | 214° |
| 2026-05-06 23:58 | 34.35656 | -77.78481 | 1790 ft | 96 kts | 213° |
| 2026-05-06 23:58 | 34.35172 | -77.79020 | 1792 ft | 95 kts | 221° |
| 2026-05-06 23:58 | 34.34706 | -77.79565 | 1793 ft | 93 kts | 223° |
| 2026-05-06 23:59 | 34.34252 | -77.80134 | 1790 ft | 92 kts | 226° |
| 2026-05-06 23:59 | 34.33832 | -77.80676 | 1789 ft | 88 kts | 225° |
| 2026-05-06 23:59 | 34.33407 | -77.81234 | 1688 ft | 92 kts | 225° |
| 2026-05-06 23:59 | 34.32966 | -77.81816 | 1570 ft | 96 kts | 229° |
| 2026-05-07 00:00 | 34.32517 | -77.82431 | 1437 ft | 98 kts | 228° |
| 2026-05-07 00:00 | 34.32056 | -77.83056 | 1311 ft | 101 kts | 228° |
| 2026-05-07 00:00 | 34.31623 | -77.83696 | 1181 ft | 97 kts | 227° |
| 2026-05-07 00:00 | 34.31146 | -77.84304 | 1051 ft | 102 kts | 222° |
| 2026-05-07 00:01 | 34.30644 | -77.84937 | 914 ft | 105 kts | 226° |
| 2026-05-07 00:01 | 34.30150 | -77.85585 | 797 ft | 100 kts | 223° |
| 2026-05-07 00:01 | 34.29686 | -77.86211 | 707 ft | 103 kts | 227° |
| 2026-05-07 00:01 | 34.29190 | -77.86782 | 623 ft | 98 kts | 216° |
| 2026-05-07 00:02 | 34.28795 | -77.87532 | 510 ft | 109 kts | 226° |
| 2026-05-07 00:02 | 34.28309 | -77.88197 | 403 ft | 99 kts | 224° |
| 2026-05-07 00:02 | 34.27874 | -77.88756 | 235 ft | 84 kts | 226° |
| 2026-05-07 00:02 | 34.27493 | -77.89263 | 37 ft | 75 kts | 226° |
| 2026-05-07 00:03 | 34.27233 | -77.89612 | 35 ft | 37 kts | 226° |
| 2026-05-07 00:03 | 34.27077 | -77.89826 | 34 ft | 32 kts | 229° |
| 2026-05-07 00:03 | 34.26920 | -77.90027 | 33 ft | 30 kts | 232° |
| 2026-05-07 00:03 | 34.26766 | -77.90253 | 32 ft | 17 kts | 242° |
| 2026-05-07 00:04 | 34.26798 | -77.90355 | 32 ft | 15 kts | 291° |
| 2026-05-07 00:04 | 34.26806 | -77.90432 | 34 ft | 4 kts | 270° |
| 2026-05-07 00:04 | 34.26806 | -77.90433 | 34 ft | 0 kts | 270° |
| 2026-05-07 00:05 | 34.26805 | -77.90457 | 34 ft | 11 kts | 266° |
| 2026-05-07 00:05 | 34.26823 | -77.90545 | 35 ft | 10 kts | 346° |
| 2026-05-07 00:05 | 34.26887 | -77.90563 | 35 ft | 10 kts | 340° |
| 2026-05-07 00:05 | 34.26962 | -77.90598 | 35 ft | 13 kts | 338° |
| 2026-05-07 00:06 | 34.27051 | -77.90641 | 35 ft | 15 kts | 332° |
| 2026-05-07 00:06 | 34.27120 | -77.90691 | 35 ft | 9 kts | 310° |
| 2026-05-07 00:06 | 34.27116 | -77.90761 | 35 ft | 9 kts | 256° |
| 2026-05-07 00:06 | 34.27083 | -77.90799 | 35 ft | 5 kts | 182° |
| 2026-05-07 00:07 | 34.27070 | -77.90812 | 35 ft | 0 kts | 339° |
| 2026-05-07 00:07 | 34.27076 | -77.90810 | 35 ft | 0 kts | 52° |